Portada
METAR-TAF:

METAR-TAF

Aeroports :

Vínnitsia, Ucraïna

latitud: 49-14-23N, longitud: 028-36-50E, altitud: 974 m

Observació

L'informe es va fer fa 17 minuts, a les 16:00 UTC
Vent 4 kt del Sud-Oest
Temperatura 0°C
Humitat 100%
Pressió 1016 hPa
Visibilitat: 0100 m
boira

METAR: UKWW 101600Z 23002MPS 0100 FG VV001 00/00 Q1016 R13/190060 NOSIG

Hora: 18:17 (16:17 UTC)

Pronòstic

L'informe es va fer fa 2 hores i 7 minuts, a les 14:10 UTC
Pronòstic vàlid del 10 a les 15 UTC al 10 a les 24 UTC
Vent 2 kt amb direcció variable
Visibilitat: 0200 m
a una alçada de 100 ft
boira
Temporalment
l' 10 a les 15 UTC al 10 a les 18 UTC
Visibilitat: 1000 m
Cel cobert a una alçada de 300 ft
boirina

TAF: UKWW 101410Z 1015/1024 VRB01MPS 0200 FG VV001 TX01/1015Z TN00/1024Z TEMPO 1015/1018 1000 BR OVC003

Observacions i pronòstics meteorològics de més de 4000 aeroports (METAR i TAF).

Les estacions disponibles són els punts grocs i vermells al mapa.

Posi el ratolí al punt desitjat per veure el nom de l'estació.

Feu clic per veure les observacions i els pronòstics meteorològics.

Per canviar el mapa: feu clic els botons verds amb una creu de color negre per apropar; al botó verd amb un guió per allunyar la imatge; o en les fletxes verdes per a mapes adjacents.


METAR-TAF: